South Burlington, VT

7:11 PM EST on January 30, 2015 (GMT -0500)
Burlington International | Change Station
CLOSE
Current Station
Airport
Location: Burlington,
Elevation: 341 ft
Nearby Weather Stations

Elev 341 ft 44.47 °N, 73.15 °W | Updated 17 minutes ago

Light Snow
Light Snow
13 °F
Feels Like -2 °F
N
14
Wind Variable Wind from NW
Gusts 26 mph

Today
High -- | Low -- °F
--% Chance of Precip.
Yesterday
High -- | Low -- °F
Precip. -- in
7:13 AM 4:58 PM
Waxing Gibbous, 86% visible
Pressure 30.07 in
Visibility 5.0 miles
Clouds Mostly Cloudy 3000 ft
Overcast 4000 ft
Windchill -2 °F
Dew Point 4 °F
Humidity 67%
Rainfall 0.16 in
Snow Depth Not available.
UV 0 out of 12
Pollen .10 out of 12
Air Quality Not available.
Flu Activity Not available.
METAR KBTV 302354Z 32012G23KT 5SM -SN BKN030 OVC040 M11/M16 A3005 RMK AO2 SLP182 4/007 P0000 60001 T11061156 11061 21106 51030

More Conditions Fewer Conditions

Pressure 30.07 in
Visibility 5.0 miles
Clouds Mostly Cloudy 3000 ft
Overcast 4000 ft
Windchill -2 °F
Dew Point 4 °F
Humidity 67%
Rainfall 0.16 in
Snow Depth Not available.
UV 0 out of 12
Pollen .10 out of 12
Air Quality Not available.
Flu Activity Not available.
METAR KBTV 302354Z 32012G23KT 5SM -SN BKN030 OVC040 M11/M16 A3005 RMK AO2 SLP182 4/007 P0000 60001 T11061156 11061 21106 51030

More Conditions Fewer Conditions

10-Day Weather Forecast

Almanac

Astronomy

Jan. 30, 2015 Rise Set
Actual Time
Civil Twilight
Nautical Twilight
Astronomical Twilight
Moon
Length of Visible Light
Length of Day
Tomorrow will be .
, % of the Moon is Illuminated

Today's Extremes

State Highs State Lows

Community

WunderPhotos

Upload Photos

1,791,939 photos uploaded!

WunderBlogs® & News

Nearby

Air Quality

  Air Quality AQ Index Pollutant
Not available.

Snow Depth

Station Depth Elevation

Earthquake Activity

City Distance Mag. Time & Date
Minimum magnitude displayed is 2.5.

Coastal Water Temperatures

Place Temperature

Nearby Weather Stations